Lagrange, Indiana
Current Conditions -  °F | °C
As of 5:35 PM on Tuesday 21 Oct 2014 (Local Time) from KIRS Reporting Station
Overcast Overcast  
Wind Chill: 42°   Ceiling: 2800
Heat Index: 46°   Visibility: 10mi
Dew Point: 39°   Wind: 9mph
Humidity: 76%   Direction: 360°N
Pressure: 30.14"   Gusts: NA
Location:  41.64°N, 85.42°W
Report Text: KIRS 212135Z AUTO 36008KT 10SM OVC028 08/04 A3014 RMK AO2
Loading
Personal Weather Stations






























Interactive Weather Map
Tropical Storm Tracking
New forecast layout! Learn more

10-Day Weather Forecast

Advertisements
Track Severe Weather on mobile